Terminal Aerodrome Forecast
Issued by NWS

Home | Current Version | Previous Version | Text Only | Print | Product List | Glossary On
Versions: 1 2 3 4 5 6 7 8 9 10 11 12 13 14 15 16 17 18 19 20 21 22 23 24
000
FTUS44 KLIX 021400 AAA
TAFHDC
TAF AMD
KHDC 021438Z 0215/0312 17005KT P6SM VCSH BKN010
      TEMPO 0217/0221 VRB15KT 2SM TSRA BKN015CB OVC030
     FM030000 16004KT 3SM -SHRA OVC090
      TEMPO 0308/0312 VRB15G25KT 1/2SM TSRA FG BKN015CB OVC030=

USA.gov is the U.S. government's official web portal to all federal, state and local government web resources and services.